sensor_id;sensor_type;location;lat;lon;timestamp;P1;durP1;ratioP1;P2;durP2;ratioP2
50853;SDS011;44154;45.506;-122.806;2022-11-10T00:01:05;13.82;;;10.05;;
50853;SDS011;44154;45.506;-122.806;2022-11-10T00:03:33;25.50;;;22.73;;
50853;SDS011;44154;45.506;-122.806;2022-11-10T00:06:04;21.38;;;19.17;;
50853;SDS011;44154;45.506;-122.806;2022-11-10T00:08:31;19.02;;;17.02;;
50853;SDS011;44154;45.506;-122.806;2022-11-10T00:10:57;10.55;;;8.85;;
50853;SDS011;44154;45.506;-122.806;2022-11-10T00:13:26;12.82;;;9.60;;
50853;SDS011;44154;45.506;-122.806;2022-11-10T00:15:57;12.60;;;9.73;;
50853;SDS011;44154;45.506;-122.806;2022-11-10T00:18:43;13.43;;;11.73;;
50853;SDS011;44154;45.506;-122.806;2022-11-10T00:21:10;11.63;;;10.25;;
50853;SDS011;44154;45.506;-122.806;2022-11-10T00:23:38;14.32;;;10.30;;
50853;SDS011;44154;45.506;-122.806;2022-11-10T00:26:09;16.42;;;13.55;;
50853;SDS011;44154;45.506;-122.806;2022-11-10T00:28:40;14.00;;;12.38;;
50853;SDS011;44154;45.506;-122.806;2022-11-10T00:31:07;24.58;;;21.27;;
50853;SDS011;44154;45.506;-122.806;2022-11-10T00:33:35;27.13;;;24.33;;
50853;SDS011;44154;45.506;-122.806;2022-11-10T00:36:02;23.13;;;20.13;;
50853;SDS011;44154;45.506;-122.806;2022-11-10T00:38:29;16.33;;;14.55;;
50853;SDS011;44154;45.506;-122.806;2022-11-10T00:40:56;13.35;;;11.93;;
50853;SDS011;44154;45.506;-122.806;2022-11-10T00:43:24;14.35;;;12.60;;
50853;SDS011;44154;45.506;-122.806;2022-11-10T00:45:50;15.70;;;12.82;;
50853;SDS011;44154;45.506;-122.806;2022-11-10T00:48:16;13.27;;;11.88;;
50853;SDS011;44154;45.506;-122.806;2022-11-10T00:50:43;14.82;;;13.30;;
50853;SDS011;44154;45.506;-122.806;2022-11-10T00:53:09;15.75;;;13.20;;
50853;SDS011;44154;45.506;-122.806;2022-11-10T00:55:36;15.70;;;14.00;;
50853;SDS011;44154;45.506;-122.806;2022-11-10T00:58:03;16.10;;;14.40;;
50853;SDS011;44154;45.506;-122.806;2022-11-10T01:00:30;17.02;;;15.20;;
50853;SDS011;44154;45.506;-122.806;2022-11-10T01:02:56;19.10;;;16.15;;
50853;SDS011;44154;45.506;-122.806;2022-11-10T01:05:22;21.20;;;18.48;;
50853;SDS011;44154;45.506;-122.806;2022-11-10T01:07:48;22.45;;;19.60;;
50853;SDS011;44154;45.506;-122.806;2022-11-10T01:10:15;23.83;;;18.98;;
50853;SDS011;44154;45.506;-122.806;2022-11-10T01:12:41;21.65;;;18.42;;
50853;SDS011;44154;45.506;-122.806;2022-11-10T01:15:07;20.27;;;18.02;;
50853;SDS011;44154;45.506;-122.806;2022-11-10T01:17:34;22.23;;;18.05;;
50853;SDS011;44154;45.506;-122.806;2022-11-10T01:20:00;18.88;;;14.65;;
50853;SDS011;44154;45.506;-122.806;2022-11-10T01:22:27;16.02;;;14.32;;
50853;SDS011;44154;45.506;-122.806;2022-11-10T01:24:53;19.48;;;14.45;;
50853;SDS011;44154;45.506;-122.806;2022-11-10T01:27:19;18.58;;;15.00;;
50853;SDS011;44154;45.506;-122.806;2022-11-10T01:29:45;17.50;;;14.77;;
50853;SDS011;44154;45.506;-122.806;2022-11-10T01:32:11;17.92;;;14.40;;
50853;SDS011;44154;45.506;-122.806;2022-11-10T01:34:37;17.13;;;14.63;;
50853;SDS011;44154;45.506;-122.806;2022-11-10T01:37:04;17.90;;;14.63;;
50853;SDS011;44154;45.506;-122.806;2022-11-10T01:39:30;18.55;;;14.95;;
50853;SDS011;44154;45.506;-122.806;2022-11-10T01:41:56;18.25;;;14.80;;
50853;SDS011;44154;45.506;-122.806;2022-11-10T01:44:23;20.38;;;15.40;;
50853;SDS011;44154;45.506;-122.806;2022-11-10T01:46:50;17.35;;;13.70;;
50853;SDS011;44154;45.506;-122.806;2022-11-10T01:49:16;16.20;;;14.38;;
50853;SDS011;44154;45.506;-122.806;2022-11-10T01:51:50;17.13;;;13.73;;
50853;SDS011;44154;45.506;-122.806;2022-11-10T01:54:28;15.98;;;13.60;;
50853;SDS011;44154;45.506;-122.806;2022-11-10T01:56:59;18.90;;;13.30;;
50853;SDS011;44154;45.506;-122.806;2022-11-10T01:59:30;16.73;;;13.98;;
50853;SDS011;44154;45.506;-122.806;2022-11-10T02:02:06;19.25;;;13.55;;
50853;SDS011;44154;45.506;-122.806;2022-11-10T02:04:42;20.03;;;13.67;;
50853;SDS011;44154;45.506;-122.806;2022-11-10T02:07:09;17.40;;;13.82;;
50853;SDS011;44154;45.506;-122.806;2022-11-10T02:09:36;16.23;;;12.85;;
50853;SDS011;44154;45.506;-122.806;2022-11-10T02:12:02;15.38;;;12.93;;
50853;SDS011;44154;45.506;-122.806;2022-11-10T02:14:28;16.65;;;13.32;;
50853;SDS011;44154;45.506;-122.806;2022-11-10T02:16:55;17.77;;;13.27;;
50853;SDS011;44154;45.506;-122.806;2022-11-10T02:19:22;17.58;;;13.30;;
50853;SDS011;44154;45.506;-122.806;2022-11-10T02:21:50;17.92;;;14.23;;
50853;SDS011;44154;45.506;-122.806;2022-11-10T02:24:16;18.63;;;14.68;;
50853;SDS011;44154;45.506;-122.806;2022-11-10T02:26:44;16.95;;;14.48;;
50853;SDS011;44154;45.506;-122.806;2022-11-10T02:29:14;18.42;;;15.52;;
50853;SDS011;44154;45.506;-122.806;2022-11-10T02:31:40;17.88;;;14.52;;
50853;SDS011;44154;45.506;-122.806;2022-11-10T02:34:07;18.23;;;14.20;;
50853;SDS011;44154;45.506;-122.806;2022-11-10T02:36:33;19.98;;;16.58;;
50853;SDS011;44154;45.506;-122.806;2022-11-10T02:38:59;18.70;;;15.45;;
50853;SDS011;44154;45.506;-122.806;2022-11-10T02:41:26;18.50;;;14.88;;
50853;SDS011;44154;45.506;-122.806;2022-11-10T02:43:52;17.10;;;14.00;;
50853;SDS011;44154;45.506;-122.806;2022-11-10T02:46:20;15.98;;;13.70;;
50853;SDS011;44154;45.506;-122.806;2022-11-10T02:48:46;16.83;;;13.98;;
50853;SDS011;44154;45.506;-122.806;2022-11-10T02:51:12;18.77;;;11.57;;
50853;SDS011;44154;45.506;-122.806;2022-11-10T02:53:39;15.40;;;12.32;;
50853;SDS011;44154;45.506;-122.806;2022-11-10T02:56:05;11.70;;;9.70;;
50853;SDS011;44154;45.506;-122.806;2022-11-10T02:58:31;12.48;;;10.00;;
50853;SDS011;44154;45.506;-122.806;2022-11-10T03:00:58;11.98;;;10.13;;
50853;SDS011;44154;45.506;-122.806;2022-11-10T03:03:24;11.30;;;10.02;;
50853;SDS011;44154;45.506;-122.806;2022-11-10T03:05:51;13.82;;;10.65;;
50853;SDS011;44154;45.506;-122.806;2022-11-10T03:08:17;11.35;;;9.95;;
50853;SDS011;44154;45.506;-122.806;2022-11-10T03:10:43;12.85;;;9.40;;
50853;SDS011;44154;45.506;-122.806;2022-11-10T03:13:10;12.18;;;10.88;;
50853;SDS011;44154;45.506;-122.806;2022-11-10T03:15:36;12.20;;;9.40;;
50853;SDS011;44154;45.506;-122.806;2022-11-10T03:18:03;11.80;;;10.07;;
50853;SDS011;44154;45.506;-122.806;2022-11-10T03:23:02;12.88;;;10.77;;
50853;SDS011;44154;45.506;-122.806;2022-11-10T03:25:29;11.48;;;9.73;;
50853;SDS011;44154;45.506;-122.806;2022-11-10T03:27:55;12.77;;;10.10;;
50853;SDS011;44154;45.506;-122.806;2022-11-10T03:30:21;13.90;;;9.32;;
50853;SDS011;44154;45.506;-122.806;2022-11-10T03:32:48;10.48;;;9.38;;
50853;SDS011;44154;45.506;-122.806;2022-11-10T03:35:14;9.75;;;7.32;;
50853;SDS011;44154;45.506;-122.806;2022-11-10T03:37:40;11.65;;;7.25;;
50853;SDS011;44154;45.506;-122.806;2022-11-10T03:40:09;8.75;;;6.68;;
50853;SDS011;44154;45.506;-122.806;2022-11-10T03:42:40;9.60;;;6.80;;
50853;SDS011;44154;45.506;-122.806;2022-11-10T03:45:09;8.73;;;6.95;;
50853;SDS011;44154;45.506;-122.806;2022-11-10T03:47:37;9.45;;;6.50;;
50853;SDS011;44154;45.506;-122.806;2022-11-10T03:50:04;8.65;;;6.35;;
50853;SDS011;44154;45.506;-122.806;2022-11-10T03:52:31;9.57;;;7.07;;
50853;SDS011;44154;45.506;-122.806;2022-11-10T03:54:57;8.13;;;6.95;;
50853;SDS011;44154;45.506;-122.806;2022-11-10T03:57:24;9.23;;;6.95;;
50853;SDS011;44154;45.506;-122.806;2022-11-10T03:59:50;6.93;;;5.85;;
50853;SDS011;44154;45.506;-122.806;2022-11-10T04:02:16;7.07;;;5.15;;
50853;SDS011;44154;45.506;-122.806;2022-11-10T04:04:42;7.05;;;5.15;;
50853;SDS011;44154;45.506;-122.806;2022-11-10T04:07:26;6.93;;;5.10;;
50853;SDS011;44154;45.506;-122.806;2022-11-10T04:10:11;8.38;;;6.13;;
50853;SDS011;44154;45.506;-122.806;2022-11-10T04:12:37;7.30;;;6.18;;
50853;SDS011;44154;45.506;-122.806;2022-11-10T04:15:22;7.93;;;6.15;;
50853;SDS011;44154;45.506;-122.806;2022-11-10T04:18:07;9.05;;;6.47;;
50853;SDS011;44154;45.506;-122.806;2022-11-10T04:20:49;11.43;;;9.00;;
50853;SDS011;44154;45.506;-122.806;2022-11-10T04:23:16;12.13;;;9.95;;
50853;SDS011;44154;45.506;-122.806;2022-11-10T04:25:59;10.57;;;8.88;;
50853;SDS011;44154;45.506;-122.806;2022-11-10T04:28:55;10.05;;;7.13;;
50853;SDS011;44154;45.506;-122.806;2022-11-10T04:31:23;9.82;;;7.32;;
50853;SDS011;44154;45.506;-122.806;2022-11-10T04:33:51;10.00;;;6.68;;
50853;SDS011;44154;45.506;-122.806;2022-11-10T04:36:19;10.95;;;7.72;;
50853;SDS011;44154;45.506;-122.806;2022-11-10T04:38:46;11.25;;;8.27;;
50853;SDS011;44154;45.506;-122.806;2022-11-10T04:41:13;8.85;;;7.63;;
50853;SDS011;44154;45.506;-122.806;2022-11-10T04:43:40;11.07;;;7.53;;
50853;SDS011;44154;45.506;-122.806;2022-11-10T04:46:09;9.55;;;7.55;;
50853;SDS011;44154;45.506;-122.806;2022-11-10T04:48:49;15.88;;;14.23;;
50853;SDS011;44154;45.506;-122.806;2022-11-10T04:51:16;13.35;;;11.95;;
50853;SDS011;44154;45.506;-122.806;2022-11-10T04:53:43;10.63;;;9.30;;
50853;SDS011;44154;45.506;-122.806;2022-11-10T04:56:28;10.02;;;9.00;;
50853;SDS011;44154;45.506;-122.806;2022-11-10T04:58:54;10.77;;;9.65;;
50853;SDS011;44154;45.506;-122.806;2022-11-10T05:01:22;10.05;;;9.00;;
50853;SDS011;44154;45.506;-122.806;2022-11-10T05:03:50;9.70;;;8.70;;
50853;SDS011;44154;45.506;-122.806;2022-11-10T05:06:17;9.80;;;8.77;;
50853;SDS011;44154;45.506;-122.806;2022-11-10T05:08:44;10.82;;;9.63;;
50853;SDS011;44154;45.506;-122.806;2022-11-10T05:11:10;10.48;;;9.20;;
50853;SDS011;44154;45.506;-122.806;2022-11-10T05:13:37;10.65;;;9.13;;
50853;SDS011;44154;45.506;-122.806;2022-11-10T05:16:03;20.58;;;18.35;;
50853;SDS011;44154;45.506;-122.806;2022-11-10T05:18:30;16.58;;;14.95;;
50853;SDS011;44154;45.506;-122.806;2022-11-10T05:20:56;13.75;;;12.13;;
50853;SDS011;44154;45.506;-122.806;2022-11-10T05:23:24;12.98;;;11.55;;
50853;SDS011;44154;45.506;-122.806;2022-11-10T05:26:09;12.00;;;10.75;;
50853;SDS011;44154;45.506;-122.806;2022-11-10T05:28:40;11.95;;;10.43;;
50853;SDS011;44154;45.506;-122.806;2022-11-10T05:31:08;12.27;;;10.98;;
50853;SDS011;44154;45.506;-122.806;2022-11-10T05:33:35;11.88;;;10.68;;
50853;SDS011;44154;45.506;-122.806;2022-11-10T05:36:02;11.68;;;10.48;;
50853;SDS011;44154;45.506;-122.806;2022-11-10T05:38:30;12.20;;;10.90;;
50853;SDS011;44154;45.506;-122.806;2022-11-10T05:40:56;20.40;;;18.20;;
50853;SDS011;44154;45.506;-122.806;2022-11-10T05:43:23;21.02;;;18.73;;
50853;SDS011;44154;45.506;-122.806;2022-11-10T05:45:49;17.67;;;15.38;;
50853;SDS011;44154;45.506;-122.806;2022-11-10T05:48:16;14.95;;;13.45;;
50853;SDS011;44154;45.506;-122.806;2022-11-10T05:50:42;14.43;;;12.93;;
50853;SDS011;44154;45.506;-122.806;2022-11-10T05:53:09;14.23;;;12.32;;
50853;SDS011;44154;45.506;-122.806;2022-11-10T05:55:35;14.13;;;12.63;;
50853;SDS011;44154;45.506;-122.806;2022-11-10T05:58:01;14.07;;;12.57;;
50853;SDS011;44154;45.506;-122.806;2022-11-10T06:00:28;13.55;;;12.02;;
50853;SDS011;44154;45.506;-122.806;2022-11-10T06:02:59;13.43;;;11.90;;
50853;SDS011;44154;45.506;-122.806;2022-11-10T06:05:26;13.85;;;12.45;;
50853;SDS011;44154;45.506;-122.806;2022-11-10T06:07:54;12.80;;;11.50;;
50853;SDS011;44154;45.506;-122.806;2022-11-10T06:10:21;12.90;;;11.48;;
50853;SDS011;44154;45.506;-122.806;2022-11-10T06:12:47;13.48;;;11.77;;
50853;SDS011;44154;45.506;-122.806;2022-11-10T06:15:14;12.75;;;10.52;;
50853;SDS011;44154;45.506;-122.806;2022-11-10T06:17:41;12.25;;;10.90;;
50853;SDS011;44154;45.506;-122.806;2022-11-10T06:20:08;12.65;;;11.35;;
50853;SDS011;44154;45.506;-122.806;2022-11-10T06:22:34;15.43;;;12.27;;
50853;SDS011;44154;45.506;-122.806;2022-11-10T06:25:01;14.52;;;12.70;;
50853;SDS011;44154;45.506;-122.806;2022-11-10T06:27:27;14.52;;;12.65;;
50853;SDS011;44154;45.506;-122.806;2022-11-10T06:29:53;14.45;;;12.95;;
50853;SDS011;44154;45.506;-122.806;2022-11-10T06:32:20;15.43;;;12.38;;
50853;SDS011;44154;45.506;-122.806;2022-11-10T06:34:46;13.70;;;12.07;;
50853;SDS011;44154;45.506;-122.806;2022-11-10T06:37:13;14.50;;;13.00;;
50853;SDS011;44154;45.506;-122.806;2022-11-10T06:39:39;13.38;;;11.98;;
50853;SDS011;44154;45.506;-122.806;2022-11-10T06:42:06;26.08;;;23.35;;
50853;SDS011;44154;45.506;-122.806;2022-11-10T06:44:32;43.95;;;39.28;;
50853;SDS011;44154;45.506;-122.806;2022-11-10T06:46:58;35.15;;;31.58;;
50853;SDS011;44154;45.506;-122.806;2022-11-10T06:49:24;31.10;;;27.85;;
50853;SDS011;44154;45.506;-122.806;2022-11-10T06:51:51;28.00;;;25.10;;
50853;SDS011;44154;45.506;-122.806;2022-11-10T06:54:17;27.35;;;24.45;;
50853;SDS011;44154;45.506;-122.806;2022-11-10T06:56:43;22.95;;;20.48;;
50853;SDS011;44154;45.506;-122.806;2022-11-10T06:59:09;23.92;;;21.58;;
50853;SDS011;44154;45.506;-122.806;2022-11-10T07:01:35;23.60;;;21.35;;
50853;SDS011;44154;45.506;-122.806;2022-11-10T07:04:01;24.23;;;21.75;;
50853;SDS011;44154;45.506;-122.806;2022-11-10T07:06:29;23.20;;;20.92;;
50853;SDS011;44154;45.506;-122.806;2022-11-10T07:08:55;22.83;;;20.45;;
50853;SDS011;44154;45.506;-122.806;2022-11-10T07:11:21;22.75;;;20.35;;
50853;SDS011;44154;45.506;-122.806;2022-11-10T07:13:47;21.10;;;18.98;;
50853;SDS011;44154;45.506;-122.806;2022-11-10T07:16:13;20.88;;;18.73;;
50853;SDS011;44154;45.506;-122.806;2022-11-10T07:18:40;20.50;;;18.45;;
50853;SDS011;44154;45.506;-122.806;2022-11-10T07:21:07;21.60;;;19.38;;
50853;SDS011;44154;45.506;-122.806;2022-11-10T07:23:33;28.70;;;25.90;;
50853;SDS011;44154;45.506;-122.806;2022-11-10T07:25:59;45.05;;;40.45;;
50853;SDS011;44154;45.506;-122.806;2022-11-10T07:28:26;30.33;;;27.33;;
50853;SDS011;44154;45.506;-122.806;2022-11-10T07:30:53;31.00;;;27.80;;
50853;SDS011;44154;45.506;-122.806;2022-11-10T07:33:19;30.25;;;27.45;;
50853;SDS011;44154;45.506;-122.806;2022-11-10T07:35:50;28.02;;;25.30;;
50853;SDS011;44154;45.506;-122.806;2022-11-10T07:38:19;21.85;;;19.63;;
50853;SDS011;44154;45.506;-122.806;2022-11-10T07:40:48;18.73;;;16.83;;
50853;SDS011;44154;45.506;-122.806;2022-11-10T07:43:17;18.75;;;16.85;;
50853;SDS011;44154;45.506;-122.806;2022-11-10T07:45:44;36.17;;;32.58;;
50853;SDS011;44154;45.506;-122.806;2022-11-10T07:48:10;30.73;;;27.60;;
50853;SDS011;44154;45.506;-122.806;2022-11-10T07:50:37;21.42;;;19.27;;
50853;SDS011;44154;45.506;-122.806;2022-11-10T07:53:16;20.40;;;18.30;;
50853;SDS011;44154;45.506;-122.806;2022-11-10T07:55:46;20.98;;;18.88;;
50853;SDS011;44154;45.506;-122.806;2022-11-10T07:58:14;21.08;;;18.98;;
50853;SDS011;44154;45.506;-122.806;2022-11-10T08:00:42;18.02;;;16.33;;
50853;SDS011;44154;45.506;-122.806;2022-11-10T08:03:10;17.50;;;15.80;;
50853;SDS011;44154;45.506;-122.806;2022-11-10T08:05:38;17.80;;;15.98;;
50853;SDS011;44154;45.506;-122.806;2022-11-10T08:08:05;16.73;;;15.10;;
50853;SDS011;44154;45.506;-122.806;2022-11-10T08:10:31;16.60;;;14.90;;
50853;SDS011;44154;45.506;-122.806;2022-11-10T08:13:00;17.63;;;15.82;;
50853;SDS011;44154;45.506;-122.806;2022-11-10T08:15:29;17.17;;;15.40;;
50853;SDS011;44154;45.506;-122.806;2022-11-10T08:17:57;18.90;;;15.27;;
50853;SDS011;44154;45.506;-122.806;2022-11-10T08:20:25;17.42;;;15.68;;
50853;SDS011;44154;45.506;-122.806;2022-11-10T08:23:01;18.25;;;15.93;;
50853;SDS011;44154;45.506;-122.806;2022-11-10T08:25:30;20.45;;;15.73;;
50853;SDS011;44154;45.506;-122.806;2022-11-10T08:28:01;18.13;;;16.23;;
50853;SDS011;44154;45.506;-122.806;2022-11-10T08:30:30;17.50;;;15.77;;
50853;SDS011;44154;45.506;-122.806;2022-11-10T08:32:57;16.55;;;14.80;;
50853;SDS011;44154;45.506;-122.806;2022-11-10T08:35:26;15.90;;;14.30;;
50853;SDS011;44154;45.506;-122.806;2022-11-10T08:37:54;17.05;;;14.15;;
50853;SDS011;44154;45.506;-122.806;2022-11-10T08:40:21;16.85;;;15.13;;
50853;SDS011;44154;45.506;-122.806;2022-11-10T08:42:56;17.27;;;15.23;;
50853;SDS011;44154;45.506;-122.806;2022-11-10T08:45:23;15.88;;;14.25;;
50853;SDS011;44154;45.506;-122.806;2022-11-10T08:47:57;16.48;;;14.75;;
50853;SDS011;44154;45.506;-122.806;2022-11-10T08:50:24;16.08;;;14.38;;
50853;SDS011;44154;45.506;-122.806;2022-11-10T08:52:51;16.10;;;14.48;;
50853;SDS011;44154;45.506;-122.806;2022-11-10T08:55:17;17.15;;;15.45;;
50853;SDS011;44154;45.506;-122.806;2022-11-10T08:57:44;15.93;;;14.20;;
50853;SDS011;44154;45.506;-122.806;2022-11-10T09:00:12;15.05;;;13.55;;
50853;SDS011;44154;45.506;-122.806;2022-11-10T09:02:42;15.45;;;13.88;;
50853;SDS011;44154;45.506;-122.806;2022-11-10T09:05:08;56.88;;;51.10;;
50853;SDS011;44154;45.506;-122.806;2022-11-10T09:07:44;51.45;;;46.35;;
50853;SDS011;44154;45.506;-122.806;2022-11-10T09:10:11;39.30;;;35.50;;
50853;SDS011;44154;45.506;-122.806;2022-11-10T09:12:38;23.05;;;20.75;;
50853;SDS011;44154;45.506;-122.806;2022-11-10T09:15:06;18.98;;;17.17;;
50853;SDS011;44154;45.506;-122.806;2022-11-10T09:17:34;20.15;;;18.15;;
50853;SDS011;44154;45.506;-122.806;2022-11-10T09:20:02;20.00;;;18.00;;
50853;SDS011;44154;45.506;-122.806;2022-11-10T09:22:29;20.27;;;18.25;;
50853;SDS011;44154;45.506;-122.806;2022-11-10T09:24:56;22.45;;;20.17;;
50853;SDS011;44154;45.506;-122.806;2022-11-10T09:27:22;16.65;;;15.07;;
50853;SDS011;44154;45.506;-122.806;2022-11-10T09:29:48;17.33;;;15.63;;
50853;SDS011;44154;45.506;-122.806;2022-11-10T09:32:14;19.52;;;17.52;;
50853;SDS011;44154;45.506;-122.806;2022-11-10T09:34:40;19.83;;;17.83;;
50853;SDS011;44154;45.506;-122.806;2022-11-10T09:37:07;18.60;;;16.80;;
50853;SDS011;44154;45.506;-122.806;2022-11-10T09:39:34;18.40;;;16.50;;
50853;SDS011;44154;45.506;-122.806;2022-11-10T09:42:00;19.27;;;17.40;;
50853;SDS011;44154;45.506;-122.806;2022-11-10T09:44:28;19.38;;;17.45;;
50853;SDS011;44154;45.506;-122.806;2022-11-10T09:47:02;38.30;;;34.53;;
50853;SDS011;44154;45.506;-122.806;2022-11-10T09:49:45;35.22;;;31.75;;
50853;SDS011;44154;45.506;-122.806;2022-11-10T09:52:18;28.08;;;25.45;;
50853;SDS011;44154;45.506;-122.806;2022-11-10T09:54:50;21.55;;;19.50;;
50853;SDS011;44154;45.506;-122.806;2022-11-10T09:57:23;20.92;;;18.85;;
50853;SDS011;44154;45.506;-122.806;2022-11-10T09:59:51;23.15;;;20.63;;
50853;SDS011;44154;45.506;-122.806;2022-11-10T10:02:20;21.10;;;19.08;;
50853;SDS011;44154;45.506;-122.806;2022-11-10T10:09:56;21.90;;;19.73;;
50853;SDS011;44154;45.506;-122.806;2022-11-10T10:12:57;21.05;;;18.95;;
50853;SDS011;44154;45.506;-122.806;2022-11-10T10:16:05;21.25;;;19.17;;
50853;SDS011;44154;45.506;-122.806;2022-11-10T10:21:22;33.28;;;29.95;;
50853;SDS011;44154;45.506;-122.806;2022-11-10T10:24:10;26.60;;;23.98;;
50853;SDS011;44154;45.506;-122.806;2022-11-10T10:26:58;21.02;;;18.92;;
50853;SDS011;44154;45.506;-122.806;2022-11-10T10:29:31;20.50;;;18.50;;
50853;SDS011;44154;45.506;-122.806;2022-11-10T10:32:04;19.80;;;17.90;;
50853;SDS011;44154;45.506;-122.806;2022-11-10T10:34:36;19.73;;;17.85;;
50853;SDS011;44154;45.506;-122.806;2022-11-10T10:37:02;19.30;;;17.40;;
50853;SDS011;44154;45.506;-122.806;2022-11-10T10:39:30;20.10;;;18.27;;
50853;SDS011;44154;45.506;-122.806;2022-11-10T10:42:05;19.45;;;17.55;;
50853;SDS011;44154;45.506;-122.806;2022-11-10T10:44:40;19.75;;;17.85;;
50853;SDS011;44154;45.506;-122.806;2022-11-10T10:47:36;19.33;;;17.42;;
50853;SDS011;44154;45.506;-122.806;2022-11-10T10:58:53;19.73;;;17.73;;
50853;SDS011;44154;45.506;-122.806;2022-11-10T11:01:31;18.92;;;17.02;;
50853;SDS011;44154;45.506;-122.806;2022-11-10T11:03:59;17.95;;;16.20;;
50853;SDS011;44154;45.506;-122.806;2022-11-10T11:06:30;19.23;;;17.33;;
50853;SDS011;44154;45.506;-122.806;2022-11-10T11:11:42;17.73;;;15.85;;
50853;SDS011;44154;45.506;-122.806;2022-11-10T11:14:19;18.05;;;16.35;;
50853;SDS011;44154;45.506;-122.806;2022-11-10T11:16:52;17.98;;;16.25;;
50853;SDS011;44154;45.506;-122.806;2022-11-10T11:19:20;25.83;;;23.33;;
50853;SDS011;44154;45.506;-122.806;2022-11-10T11:24:53;23.67;;;21.37;;
50853;SDS011;44154;45.506;-122.806;2022-11-10T11:27:41;18.45;;;16.67;;
50853;SDS011;44154;45.506;-122.806;2022-11-10T11:30:16;17.42;;;15.73;;
50853;SDS011;44154;45.506;-122.806;2022-11-10T11:38:25;17.70;;;16.00;;
50853;SDS011;44154;45.506;-122.806;2022-11-10T11:41:02;17.50;;;15.70;;
50853;SDS011;44154;45.506;-122.806;2022-11-10T11:44:05;16.77;;;15.07;;
50853;SDS011;44154;45.506;-122.806;2022-11-10T11:54:57;25.63;;;23.03;;
50853;SDS011;44154;45.506;-122.806;2022-11-10T12:00:13;15.75;;;14.25;;
50853;SDS011;44154;45.506;-122.806;2022-11-10T12:11:08;16.40;;;14.80;;
50853;SDS011;44154;45.506;-122.806;2022-11-10T12:14:08;16.17;;;14.57;;
50853;SDS011;44154;45.506;-122.806;2022-11-10T12:16:38;16.13;;;14.52;;
50853;SDS011;44154;45.506;-122.806;2022-11-10T12:21:53;17.98;;;16.17;;
50853;SDS011;44154;45.506;-122.806;2022-11-10T12:27:18;22.67;;;20.48;;
50853;SDS011;44154;45.506;-122.806;2022-11-10T12:35:47;15.93;;;14.43;;
50853;SDS011;44154;45.506;-122.806;2022-11-10T12:38:16;15.18;;;13.77;;
50853;SDS011;44154;45.506;-122.806;2022-11-10T12:46:42;15.57;;;14.00;;
50853;SDS011;44154;45.506;-122.806;2022-11-10T12:51:41;16.17;;;14.57;;
50853;SDS011;44154;45.506;-122.806;2022-11-10T12:54:24;22.35;;;20.05;;
50853;SDS011;44154;45.506;-122.806;2022-11-10T12:56:57;26.35;;;23.85;;
50853;SDS011;44154;45.506;-122.806;2022-11-10T12:59:30;23.58;;;21.17;;
50853;SDS011;44154;45.506;-122.806;2022-11-10T13:02:03;16.40;;;14.70;;
50853;SDS011;44154;45.506;-122.806;2022-11-10T13:04:41;16.27;;;14.55;;
50853;SDS011;44154;45.506;-122.806;2022-11-10T13:07:08;16.05;;;14.38;;
50853;SDS011;44154;45.506;-122.806;2022-11-10T13:09:39;15.32;;;13.82;;
50853;SDS011;44154;45.506;-122.806;2022-11-10T13:14:41;16.20;;;14.07;;
50853;SDS011;44154;45.506;-122.806;2022-11-10T13:17:50;15.27;;;13.75;;
50853;SDS011;44154;45.506;-122.806;2022-11-10T13:19:57;16.13;;;14.55;;
50853;SDS011;44154;45.506;-122.806;2022-11-10T13:27:58;25.63;;;23.23;;
50853;SDS011;44154;45.506;-122.806;2022-11-10T13:30:46;23.85;;;21.38;;
50853;SDS011;44154;45.506;-122.806;2022-11-10T13:35:51;15.15;;;13.68;;
50853;SDS011;44154;45.506;-122.806;2022-11-10T13:43:51;15.63;;;14.13;;
50853;SDS011;44154;45.506;-122.806;2022-11-10T13:46:20;15.30;;;13.70;;
50853;SDS011;44154;45.506;-122.806;2022-11-10T13:51:54;14.82;;;13.27;;
50853;SDS011;44154;45.506;-122.806;2022-11-10T14:00:00;24.80;;;22.35;;
50853;SDS011;44154;45.506;-122.806;2022-11-10T14:02:56;19.95;;;18.02;;
50853;SDS011;44154;45.506;-122.806;2022-11-10T14:10:50;15.07;;;13.35;;
50853;SDS011;44154;45.506;-122.806;2022-11-10T14:13:27;16.23;;;14.60;;
50853;SDS011;44154;45.506;-122.806;2022-11-10T14:15:57;16.10;;;14.50;;
50853;SDS011;44154;45.506;-122.806;2022-11-10T14:18:27;16.45;;;14.55;;
50853;SDS011;44154;45.506;-122.806;2022-11-10T14:21:04;16.42;;;14.75;;
50853;SDS011;44154;45.506;-122.806;2022-11-10T14:23:44;15.95;;;14.25;;
50853;SDS011;44154;45.506;-122.806;2022-11-10T14:26:22;23.08;;;20.80;;
50853;SDS011;44154;45.506;-122.806;2022-11-10T14:28:56;25.33;;;22.80;;
50853;SDS011;44154;45.506;-122.806;2022-11-10T14:31:43;22.20;;;20.00;;
50853;SDS011;44154;45.506;-122.806;2022-11-10T14:34:12;16.00;;;14.43;;
50853;SDS011;44154;45.506;-122.806;2022-11-10T14:36:56;15.15;;;13.57;;
50853;SDS011;44154;45.506;-122.806;2022-11-10T14:39:26;15.30;;;13.75;;
50853;SDS011;44154;45.506;-122.806;2022-11-10T14:41:58;15.25;;;13.75;;
50853;SDS011;44154;45.506;-122.806;2022-11-10T14:44:28;15.57;;;13.98;;
50853;SDS011;44154;45.506;-122.806;2022-11-10T14:46:55;14.82;;;13.32;;
50853;SDS011;44154;45.506;-122.806;2022-11-10T14:49:23;26.70;;;23.98;;
50853;SDS011;44154;45.506;-122.806;2022-11-10T14:51:53;24.42;;;21.88;;
50853;SDS011;44154;45.506;-122.806;2022-11-10T14:54:25;19.45;;;17.45;;
50853;SDS011;44154;45.506;-122.806;2022-11-10T14:56:53;16.77;;;14.98;;
50853;SDS011;44154;45.506;-122.806;2022-11-10T14:59:20;13.93;;;12.52;;
50853;SDS011;44154;45.506;-122.806;2022-11-10T15:01:53;12.55;;;11.32;;
50853;SDS011;44154;45.506;-122.806;2022-11-10T15:04:26;13.38;;;11.95;;
50853;SDS011;44154;45.506;-122.806;2022-11-10T15:06:56;12.65;;;11.30;;
50853;SDS011;44154;45.506;-122.806;2022-11-10T15:09:25;10.82;;;9.73;;
50853;SDS011;44154;45.506;-122.806;2022-11-10T15:14:43;9.40;;;8.07;;
50853;SDS011;44154;45.506;-122.806;2022-11-10T15:17:14;9.27;;;8.38;;
50853;SDS011;44154;45.506;-122.806;2022-11-10T15:22:12;10.80;;;9.32;;
50853;SDS011;44154;45.506;-122.806;2022-11-10T15:24:45;10.82;;;9.73;;
50853;SDS011;44154;45.506;-122.806;2022-11-10T15:27:23;11.38;;;10.27;;
50853;SDS011;44154;45.506;-122.806;2022-11-10T15:29:52;11.27;;;10.07;;
50853;SDS011;44154;45.506;-122.806;2022-11-10T15:32:20;11.60;;;10.30;;
50853;SDS011;44154;45.506;-122.806;2022-11-10T15:34:49;13.57;;;11.75;;
50853;SDS011;44154;45.506;-122.806;2022-11-10T15:37:25;15.25;;;12.43;;
50853;SDS011;44154;45.506;-122.806;2022-11-10T15:40:26;13.02;;;11.73;;
50853;SDS011;44154;45.506;-122.806;2022-11-10T15:43:08;14.37;;;12.70;;
50853;SDS011;44154;45.506;-122.806;2022-11-10T15:45:37;15.60;;;13.40;;
50853;SDS011;44154;45.506;-122.806;2022-11-10T15:48:07;16.48;;;14.68;;